Time;durP1;ratioP1;P1;durP2;ratioP2;P2;SDS_P1;SDS_P2;PMS_P1;PMS_P2;Temp;Humidity;BMP_temperature;BMP_pressure;BME280_temperature;BME280_humidity;BME280_pressure;Samples;Min_cycle;Max_cycle;Signal;HPM_P1;HPM_P2
2022/03/23 00:00:28;;;;;;;84.82;33.10;;;7.60;99.90;;;;;;5028101;28;20360;-58
2022/03/23 00:02:56;;;;;;;89.47;33.53;;;7.60;99.90;;;;;;4993805;28;20049;-56
2022/03/23 00:05:25;;;;;;;90.75;34.83;;;7.50;99.90;;;;;;5027830;28;20042;-57
2022/03/23 00:07:53;;;;;;;96.35;35.05;;;7.50;99.90;;;;;;5012080;28;20046;-57
2022/03/23 00:10:21;;;;;;;89.25;35.42;;;7.50;99.90;;;;;;5020555;28;20038;-57
2022/03/23 00:12:49;;;;;;;89.45;35.30;;;7.40;99.90;;;;;;5011464;28;20068;-58
2022/03/23 00:15:17;;;;;;;90.35;34.70;;;7.40;99.90;;;;;;5010553;28;20053;-57
2022/03/23 00:17:47;;;;;;;91.57;34.28;;;7.40;99.90;;;;;;5010600;28;20061;-57
2022/03/23 00:20:15;;;;;;;87.50;33.72;;;7.30;99.90;;;;;;5010620;28;20049;-57
2022/03/23 00:22:43;;;;;;;80.38;32.65;;;7.30;99.90;;;;;;5010978;28;20050;-57
2022/03/23 00:25:10;;;;;;;75.25;31.63;;;7.30;99.90;;;;;;5027295;28;20042;-58
2022/03/23 00:27:38;;;;;;;84.85;35.10;;;7.20;99.90;;;;;;5019017;28;20066;-57
2022/03/23 00:30:09;;;;;;;89.40;33.75;;;7.20;99.90;;;;;;5010212;28;20045;-57
2022/03/23 00:32:37;;;;;;;91.53;33.17;;;7.20;99.90;;;;;;5009998;28;20046;-56
2022/03/23 00:35:05;;;;;;;91.15;34.63;;;7.10;99.90;;;;;;5010165;28;20065;-57
2022/03/23 00:37:33;;;;;;;97.78;36.38;;;7.10;99.90;;;;;;5013515;28;20077;-57
2022/03/23 00:40:01;;;;;;;91.38;33.90;;;7.00;99.90;;;;;;5027543;28;20053;-57
2022/03/23 00:42:29;;;;;;;78.95;31.85;;;7.00;99.90;;;;;;5028160;28;20061;-56
2022/03/23 00:44:58;;;;;;;78.32;32.78;;;7.00;99.90;;;;;;5010043;28;20041;-56
2022/03/23 00:47:25;;;;;;;77.63;30.88;;;6.90;99.90;;;;;;5010509;28;20045;-57
2022/03/23 00:49:53;;;;;;;88.07;34.15;;;6.90;99.90;;;;;;5010144;28;20049;-56
2022/03/23 00:52:21;;;;;;;90.13;33.25;;;6.80;99.90;;;;;;5020369;28;20046;-57
2022/03/23 00:54:48;;;;;;;88.38;34.97;;;6.70;99.90;;;;;;5011944;28;20061;-57
2022/03/23 00:57:16;;;;;;;91.07;34.67;;;6.70;99.90;;;;;;5010291;28;20053;-58
2022/03/23 00:59:44;;;;;;;94.70;35.70;;;6.70;99.90;;;;;;5009939;28;20048;-58
2022/03/23 01:02:14;;;;;;;95.50;34.95;;;6.70;99.90;;;;;;5026045;28;20407;-58
2022/03/23 01:04:43;;;;;;;97.93;35.00;;;6.70;99.90;;;;;;5006325;28;20045;-58
2022/03/23 01:07:11;;;;;;;90.63;33.90;;;6.60;99.90;;;;;;5007595;28;20049;-57
2022/03/23 01:09:38;;;;;;;89.43;34.25;;;6.60;99.90;;;;;;5026897;28;20515;-58
2022/03/23 01:12:08;;;;;;;76.82;29.95;;;6.60;99.90;;;;;;5010165;28;20056;-58
2022/03/23 01:14:36;;;;;;;82.85;31.95;;;6.50;99.90;;;;;;5026993;28;20049;-58
2022/03/23 01:17:03;;;;;;;83.75;31.75;;;6.50;99.90;;;;;;5010181;28;20056;-58
2022/03/23 01:19:31;;;;;;;86.75;33.85;;;6.50;99.90;;;;;;5009106;28;20033;-58
2022/03/23 01:21:59;;;;;;;84.22;31.42;;;6.40;99.90;;;;;;5000903;28;20065;-57
2022/03/23 01:24:27;;;;;;;79.60;29.40;;;6.40;99.90;;;;;;5003931;28;20056;-57
2022/03/23 01:26:54;;;;;;;86.60;31.35;;;6.30;99.90;;;;;;5009467;28;20049;-58
2022/03/23 01:29:22;;;;;;;97.45;34.58;;;6.30;99.90;;;;;;5010060;28;20041;-58
2022/03/23 01:31:50;;;;;;;77.25;31.27;;;6.30;99.90;;;;;;5027912;28;20048;-59
2022/03/23 01:34:17;;;;;;;82.03;32.78;;;6.30;99.90;;;;;;5017086;28;20053;-59
2022/03/23 01:36:45;;;;;;;81.53;31.65;;;6.20;99.90;;;;;;5025438;28;20045;-59
2022/03/23 01:39:13;;;;;;;83.85;32.53;;;6.10;99.90;;;;;;5025197;28;20054;-59
2022/03/23 01:41:42;;;;;;;96.43;34.90;;;6.10;99.90;;;;;;5030698;28;20041;-58
2022/03/23 01:44:15;;;;;;;87.05;32.30;;;6.10;99.90;;;;;;5030632;28;20060;-58
2022/03/23 01:47:07;;;;;;;80.25;32.33;;;6.00;99.90;;;;;;5030894;28;20050;-58
2022/03/23 01:49:37;;;;;;;80.55;32.38;;;6.00;99.90;;;;;;5005435;28;20057;-59
2022/03/23 01:52:07;;;;;;;92.55;31.42;;;6.00;99.90;;;;;;5018289;28;20042;-59
2022/03/23 01:54:37;;;;;;;81.43;31.88;;;5.90;99.90;;;;;;5008524;28;20046;-58
2022/03/23 01:57:06;;;;;;;83.45;32.33;;;5.90;99.90;;;;;;5030392;28;20041;-59
2022/03/23 01:59:35;;;;;;;90.53;33.33;;;5.90;99.90;;;;;;5012639;28;20038;-59
2022/03/23 02:02:04;;;;;;;84.95;32.75;;;5.80;99.90;;;;;;5012024;28;20057;-59
2022/03/23 02:04:37;;;;;;;86.78;32.85;;;5.80;99.90;;;;;;5012808;28;20040;-58
2022/03/23 02:07:06;;;;;;;79.22;33.10;;;5.80;99.90;;;;;;5023915;28;20050;-58
2022/03/23 02:09:38;;;;;;;83.65;32.75;;;5.70;99.90;;;;;;5011429;28;20053;-59
2022/03/23 02:12:11;;;;;;;80.18;30.40;;;5.70;99.90;;;;;;5028906;28;20113;-58
2022/03/23 02:14:39;;;;;;;81.50;30.67;;;6.00;99.90;;;;;;5000287;28;20041;-59
2022/03/23 02:17:08;;;;;;;83.57;32.80;;;5.70;99.90;;;;;;5029989;28;20064;-59
2022/03/23 02:19:36;;;;;;;78.57;30.88;;;5.70;99.90;;;;;;5013589;28;20041;-58
2022/03/23 02:22:04;;;;;;;71.32;30.30;;;5.60;99.90;;;;;;5009686;28;20044;-58
2022/03/23 02:24:33;;;;;;;83.72;31.80;;;5.60;99.90;;;;;;5028869;28;20034;-58
2022/03/23 02:27:00;;;;;;;77.25;28.40;;;5.60;99.90;;;;;;5013331;28;20497;-58
2022/03/23 02:29:31;;;;;;;74.53;30.50;;;5.50;99.90;;;;;;5029128;28;20240;-58
2022/03/23 02:32:04;;;;;;;85.25;31.48;;;5.50;99.90;;;;;;5009477;28;20045;-58
2022/03/23 02:34:32;;;;;;;89.43;33.00;;;5.50;99.90;;;;;;5033239;28;20045;-58
2022/03/23 02:37:01;;;;;;;75.68;29.88;;;5.40;99.90;;;;;;5033296;28;20049;-58
2022/03/23 02:39:28;;;;;;;81.38;30.67;;;5.40;99.90;;;;;;5032388;28;20051;-57
2022/03/23 02:41:56;;;;;;;84.35;31.27;;;5.40;99.90;;;;;;5031872;28;20045;-57
2022/03/23 02:44:29;;;;;;;93.53;32.40;;;5.30;99.90;;;;;;5032437;28;20516;-58
2022/03/23 02:46:57;;;;;;;78.15;30.52;;;5.30;99.90;;;;;;5030153;28;20042;-58
2022/03/23 02:49:25;;;;;;;88.80;32.00;;;5.20;99.90;;;;;;5031874;28;20049;-59
2022/03/23 02:51:53;;;;;;;84.93;32.40;;;5.20;99.90;;;;;;5031644;28;20046;-58
2022/03/23 03:03:33;;;;;;;91.35;31.45;;;5.10;99.90;;;;;;5032347;28;20481;-58
2022/03/23 03:06:03;;;;;;;82.85;32.70;;;5.10;99.90;;;;;;5030706;28;20045;-58
2022/03/23 03:08:48;;;;;;;83.70;32.15;;;5.00;99.90;;;;;;5031840;28;20060;-58
2022/03/23 03:11:18;;;;;;;74.30;30.02;;;5.00;99.90;;;;;;5032550;28;20481;-58
2022/03/23 03:13:48;;;;;;;80.07;31.17;;;4.90;99.90;;;;;;5032071;28;20053;-58
2022/03/23 03:16:17;;;;;;;83.63;32.65;;;4.90;99.90;;;;;;5032564;28;20048;-58
2022/03/23 03:18:46;;;;;;;94.47;34.85;;;4.90;99.90;;;;;;5032360;28;20052;-58
2022/03/23 03:21:15;;;;;;;78.75;32.42;;;4.90;99.90;;;;;;5032071;28;20415;-58
2022/03/23 03:23:44;;;;;;;73.35;29.35;;;4.80;99.90;;;;;;5031952;28;20052;-57
2022/03/23 03:26:14;;;;;;;75.95;28.38;;;4.80;99.90;;;;;;5031561;28;20061;-58
2022/03/23 03:28:43;;;;;;;77.97;28.10;;;4.80;99.90;;;;;;5032570;28;20053;-58
2022/03/23 03:31:13;;;;;;;74.65;30.27;;;4.80;99.90;;;;;;5032304;28;20053;-58
2022/03/23 03:33:43;;;;;;;73.20;29.35;;;4.80;99.90;;;;;;5014990;28;20041;-59
2022/03/23 03:36:11;;;;;;;71.78;28.52;;;4.70;99.90;;;;;;5031491;28;20049;-58
2022/03/23 03:38:40;;;;;;;76.25;28.95;;;4.70;99.90;;;;;;5032214;28;20436;-59
2022/03/23 03:41:08;;;;;;;68.15;28.23;;;4.60;99.90;;;;;;5013689;28;20048;-59
2022/03/23 03:43:37;;;;;;;65.63;27.73;;;4.60;99.90;;;;;;5031872;28;20542;-58
2022/03/23 03:46:10;;;;;;;63.45;26.38;;;4.60;99.90;;;;;;5031741;28;20527;-58
2022/03/23 03:48:40;;;;;;;71.10;27.75;;;4.60;99.90;;;;;;5031809;28;20553;-59
2022/03/23 03:51:08;;;;;;;;;;;4.60;99.90;;;;;;5014864;28;20056;-58
2022/03/23 03:53:36;;;;;;;67.13;26.00;;;4.50;99.90;;;;;;5014419;28;20324;-58
2022/03/23 03:56:08;;;;;;;69.57;26.30;;;4.50;99.90;;;;;;5030161;28;20046;-57
2022/03/23 03:58:38;;;;;;;66.68;26.25;;;4.50;99.90;;;;;;5031416;28;20544;-57
2022/03/23 04:01:06;;;;;;;74.15;28.52;;;4.50;99.90;;;;;;5031211;28;20385;-58
2022/03/23 04:03:34;;;;;;;68.55;27.38;;;4.50;99.90;;;;;;5029800;28;20049;-58
2022/03/23 04:06:04;;;;;;;70.72;26.70;;;4.50;99.90;;;;;;5031536;28;20057;-58
2022/03/23 04:08:32;;;;;;;63.42;26.98;;;4.50;99.90;;;;;;5031597;28;20060;-58
2022/03/23 04:10:59;;;;;;;71.10;28.00;;;4.40;99.90;;;;;;5030402;28;20048;-58
2022/03/23 04:13:27;;;;;;;68.88;27.98;;;4.40;99.90;;;;;;5031558;28;20053;-58
2022/03/23 04:15:55;;;;;;;81.88;29.75;;;4.40;99.90;;;;;;5031217;28;20049;-59
2022/03/23 04:18:23;;;;;;;70.50;27.75;;;4.50;99.90;;;;;;5031445;28;20052;-59
2022/03/23 04:20:51;;;;;;;66.15;26.17;;;4.40;99.90;;;;;;5031575;28;20049;-59
2022/03/23 04:23:19;;;;;;;73.75;28.65;;;4.40;99.90;;;;;;5031339;28;20045;-59
2022/03/23 04:25:47;;;;;;;67.38;28.20;;;4.40;99.90;;;;;;5030795;28;20045;-59
2022/03/23 04:28:14;;;;;;;71.22;27.27;;;4.40;99.90;;;;;;5031002;28;20045;-59
2022/03/23 04:30:43;;;;;;;72.22;28.50;;;4.30;99.90;;;;;;5031692;28;20544;-59
2022/03/23 04:33:11;;;;;;;70.70;28.55;;;4.40;99.90;;;;;;5030336;28;20051;-58
2022/03/23 04:35:39;;;;;;;68.13;26.60;;;4.30;99.90;;;;;;5031311;28;20061;-57
2022/03/23 04:38:06;;;;;;;81.35;29.10;;;4.30;99.90;;;;;;5031426;28;20045;-58
2022/03/23 04:40:36;;;;;;;71.97;28.33;;;4.20;99.90;;;;;;5031159;28;20045;-58
2022/03/23 04:43:03;;;;;;;82.05;30.55;;;4.20;99.90;;;;;;5031299;28;20049;-57
2022/03/23 04:45:31;;;;;;;82.95;31.50;;;4.20;99.90;;;;;;5030923;28;20040;-57
2022/03/23 04:47:59;;;;;;;76.88;29.83;;;4.20;99.90;;;;;;5030867;28;20053;-58
2022/03/23 04:50:27;;;;;;;78.57;29.30;;;4.20;99.90;;;;;;5030865;28;20052;-58
2022/03/23 04:52:55;;;;;;;73.03;27.88;;;4.20;99.90;;;;;;5013859;28;20059;-57
2022/03/23 04:55:24;;;;;;;83.60;30.52;;;4.20;99.90;;;;;;5030975;28;20037;-57
2022/03/23 04:57:51;;;;;;;77.47;30.02;;;4.20;99.90;;;;;;5031381;28;20053;-57
2022/03/23 05:00:21;;;;;;;70.15;27.80;;;4.20;99.90;;;;;;5031145;28;20042;-57
2022/03/23 05:02:49;;;;;;;;;;;4.10;99.90;;;;;;5029762;28;20049;-58
2022/03/23 05:05:17;;;;;;;76.13;28.48;;;4.20;99.90;;;;;;5030880;28;19921;-57
2022/03/23 05:07:45;;;;;;;74.32;28.63;;;4.20;99.90;;;;;;5031076;28;20042;-57
2022/03/23 05:10:14;;;;;;;72.00;27.75;;;4.10;99.90;;;;;;5033831;28;20045;-57
2022/03/23 05:12:44;;;;;;;66.03;25.73;;;4.10;99.90;;;;;;5035038;28;20421;-57
2022/03/23 05:15:14;;;;;;;75.07;28.55;;;4.10;99.90;;;;;;5024374;28;20053;-59
2022/03/23 05:17:42;;;;;;;72.80;27.48;;;4.10;99.90;;;;;;5035113;28;20045;-58
2022/03/23 05:20:10;;;;;;;62.13;26.42;;;4.10;99.90;;;;;;5027129;28;20060;-58
2022/03/23 05:22:38;;;;;;;72.00;27.75;;;4.10;99.90;;;;;;5034645;28;20052;-57
2022/03/23 05:25:07;;;;;;;72.15;27.88;;;4.10;99.90;;;;;;5034238;28;20045;-59
2022/03/23 05:27:39;;;;;;;65.40;25.65;;;4.00;99.90;;;;;;5034620;28;20400;-57
2022/03/23 05:30:10;;;;;;;65.72;25.92;;;4.00;99.90;;;;;;5034339;28;20373;-57
2022/03/23 05:32:39;;;;;;;66.05;26.83;;;4.00;99.90;;;;;;5034806;28;20057;-57
2022/03/23 05:35:08;;;;;;;72.95;26.83;;;3.90;99.90;;;;;;5033647;28;20056;-57
2022/03/23 05:37:36;;;;;;;71.25;27.73;;;3.90;99.90;;;;;;5000528;28;20485;-57
2022/03/23 05:40:13;;;;;;;70.47;27.45;;;3.90;99.90;;;;;;5033359;28;20053;-57
2022/03/23 05:42:41;;;;;;;65.63;25.88;;;3.90;99.90;;;;;;5034328;28;20045;-58
2022/03/23 05:45:09;;;;;;;70.93;28.70;;;3.80;99.90;;;;;;5033630;28;20046;-58
2022/03/23 05:47:38;;;;;;;71.30;28.77;;;3.80;99.90;;;;;;5026891;28;20046;-58
2022/03/23 05:50:07;;;;;;;67.22;27.23;;;3.80;99.90;;;;;;5012136;28;20057;-58
2022/03/23 05:52:36;;;;;;;68.07;27.52;;;3.80;99.90;;;;;;4993612;28;20050;-58
2022/03/23 05:55:07;;;;;;;81.70;29.83;;;3.70;99.90;;;;;;5026757;28;20480;-58
2022/03/23 05:57:37;;;;;;;70.55;27.95;;;3.70;99.90;;;;;;5030188;28;20061;-59
2022/03/23 06:00:07;;;;;;;80.60;29.73;;;3.70;99.90;;;;;;5030683;28;20041;-58
2022/03/23 06:02:39;;;;;;;66.15;26.20;;;3.70;99.90;;;;;;5021663;28;20037;-59
2022/03/23 06:05:09;;;;;;;70.13;26.75;;;3.70;99.90;;;;;;5026886;28;20049;-58
2022/03/23 06:07:37;;;;;;;73.35;28.42;;;3.60;99.90;;;;;;5027227;28;20045;-58
2022/03/23 06:10:07;;;;;;;70.78;27.15;;;3.60;99.90;;;;;;5030554;28;20045;-58
2022/03/23 06:12:35;;;;;;;66.95;26.77;;;3.60;99.90;;;;;;4996352;28;20041;-59
2022/03/23 06:15:05;;;;;;;74.03;27.38;;;3.60;99.90;;;;;;4996753;28;20045;-58
2022/03/23 06:17:33;;;;;;;67.95;28.17;;;3.50;99.90;;;;;;5029370;28;20046;-57
2022/03/23 06:20:02;;;;;;;76.43;27.98;;;3.50;99.90;;;;;;5029764;28;20045;-58
2022/03/23 06:22:30;;;;;;;72.90;28.90;;;3.50;99.90;;;;;;5030289;28;20497;-59
2022/03/23 06:24:58;;;;;;;76.57;29.17;;;3.50;99.90;;;;;;5030039;28;20052;-58
2022/03/23 06:27:26;;;;;;;67.28;27.25;;;3.40;99.90;;;;;;5029549;28;20049;-59
2022/03/23 06:29:55;;;;;;;72.60;29.92;;;3.50;99.90;;;;;;5012452;28;20053;-58
2022/03/23 06:32:22;;;;;;;71.72;27.73;;;3.50;99.90;;;;;;5029918;28;20540;-58
2022/03/23 06:34:50;;;;;;;74.00;29.20;;;3.50;99.90;;;;;;5029832;28;20046;-59
2022/03/23 06:37:18;;;;;;;77.90;30.92;;;3.50;99.90;;;;;;5029996;28;20052;-59
2022/03/23 06:39:46;;;;;;;76.65;27.75;;;3.50;99.90;;;;;;5029946;28;20045;-59
2022/03/23 06:42:13;;;;;;;76.57;29.67;;;3.50;99.90;;;;;;5024750;28;20409;-58
2022/03/23 06:44:43;;;;;;;77.18;28.30;;;3.50;99.90;;;;;;5028725;28;20046;-58
2022/03/23 06:47:10;;;;;;;76.45;27.38;;;3.50;99.90;;;;;;5027939;28;20042;-58
2022/03/23 06:49:38;;;;;;;70.82;26.92;;;3.50;99.90;;;;;;5010054;28;20049;-57
2022/03/23 06:52:07;;;;;;;73.22;30.27;;;3.50;99.90;;;;;;5027488;28;20065;-58
2022/03/23 06:54:34;;;;;;;76.63;29.35;;;3.60;99.90;;;;;;5028879;28;20049;-58
2022/03/23 06:57:02;;;;;;;71.90;28.38;;;3.60;99.90;;;;;;5028475;28;20052;-58
2022/03/23 06:59:30;;;;;;;78.97;29.90;;;3.70;99.90;;;;;;4995939;28;20056;-57
2022/03/23 07:01:57;;;;;;;73.63;29.45;;;3.80;99.90;;;;;;5011725;28;20477;-59
2022/03/23 07:04:25;;;;;;;73.70;28.98;;;3.80;99.90;;;;;;5011832;28;20054;-57
2022/03/23 07:06:53;;;;;;;80.97;30.63;;;3.80;99.90;;;;;;5009590;28;20042;-57
2022/03/23 07:09:32;;;;;;;81.65;29.35;;;3.90;99.90;;;;;;5025859;28;20049;-58
2022/03/23 07:12:03;;;;;;;80.05;30.50;;;4.00;99.90;;;;;;5027048;28;20052;-59
2022/03/23 07:14:32;;;;;;;71.43;27.80;;;4.00;99.90;;;;;;5020228;28;20045;-57
2022/03/23 07:17:00;;;;;;;73.78;30.02;;;4.10;99.90;;;;;;5022773;28;20053;-57
2022/03/23 07:19:28;;;;;;;81.18;30.77;;;4.10;99.90;;;;;;4994676;28;20054;-57
2022/03/23 07:21:56;;;;;;;84.07;30.05;;;4.20;99.90;;;;;;5009410;28;20042;-59
2022/03/23 07:24:24;;;;;;;79.70;31.08;;;4.30;99.90;;;;;;5011184;28;20055;-57
2022/03/23 07:26:52;;;;;;;83.40;32.72;;;4.30;99.90;;;;;;5028334;28;20049;-57
2022/03/23 07:29:40;;;;;;;83.13;32.05;;;4.40;99.90;;;;;;5009081;28;20398;-57
2022/03/23 07:32:09;;;;;;;91.65;32.70;;;4.50;99.90;;;;;;5006885;28;20485;-58
2022/03/23 07:34:36;;;;;;;88.22;32.00;;;4.60;99.90;;;;;;5019069;28;20412;-57
2022/03/23 07:37:04;;;;;;;90.28;33.70;;;4.70;99.90;;;;;;5023984;28;20583;-58
2022/03/23 07:39:32;;;;;;;84.20;32.55;;;4.80;99.90;;;;;;5025062;28;20049;-59
2022/03/23 07:42:02;;;;;;;90.50;34.47;;;4.90;99.90;;;;;;5024411;28;20040;-59
2022/03/23 07:44:32;;;;;;;82.63;32.47;;;5.00;99.90;;;;;;5014622;28;20049;-58
2022/03/23 07:47:01;;;;;;;100.20;36.42;;;5.10;99.90;;;;;;5004893;28;20056;-58
2022/03/23 07:49:29;;;;;;;90.72;33.60;;;5.20;99.90;;;;;;5015899;28;20049;-59
2022/03/23 07:52:02;;;;;;;94.00;35.08;;;5.40;99.90;;;;;;5027995;28;20045;-59
2022/03/23 07:54:31;;;;;;;98.25;36.30;;;5.40;99.90;;;;;;5025643;28;20073;-59
2022/03/23 07:56:58;;;;;;;115.35;43.42;;;5.60;99.90;;;;;;5023272;28;20409;-59
2022/03/23 07:59:27;;;;;;;124.13;43.85;;;5.70;99.90;;;;;;5028723;28;20041;-59
2022/03/23 08:01:55;;;;;;;121.63;43.30;;;5.90;99.90;;;;;;5025769;28;20056;-59
2022/03/23 08:04:22;;;;;;;134.15;41.88;;;6.00;99.90;;;;;;5006058;28;20071;-59
2022/03/23 08:06:50;;;;;;;127.05;45.10;;;6.20;99.90;;;;;;5007425;28;20104;-59
2022/03/23 08:09:18;;;;;;;117.43;43.25;;;6.30;99.90;;;;;;5025156;28;20042;-57
2022/03/23 08:11:45;;;;;;;123.82;48.63;;;6.40;99.90;;;;;;5023985;28;20528;-58
2022/03/23 08:14:13;;;;;;;100.78;40.45;;;6.60;99.90;;;;;;5027265;28;20048;-58
2022/03/23 08:16:42;;;;;;;116.90;40.28;;;6.80;99.90;;;;;;5028078;28;20046;-58
2022/03/23 08:19:10;;;;;;;111.90;39.53;;;6.90;99.90;;;;;;5027944;28;20052;-56
2022/03/23 08:21:37;;;;;;;84.90;36.33;;;7.10;99.90;;;;;;5028133;28;20041;-57
2022/03/23 08:24:05;;;;;;;87.15;34.92;;;7.30;99.90;;;;;;5027479;28;20064;-58
2022/03/23 08:26:34;;;;;;;85.80;34.17;;;7.40;99.90;;;;;;5013308;28;20058;-58
2022/03/23 08:29:01;;;;;;;74.82;32.85;;;7.60;99.90;;;;;;5024780;28;20056;-57
2022/03/23 08:31:29;;;;;;;79.65;33.03;;;7.80;99.90;;;;;;5026494;28;20128;-57
2022/03/23 08:33:57;;;;;;;76.78;31.60;;;7.90;99.90;;;;;;5027896;28;20041;-57
2022/03/23 08:36:24;;;;;;;72.88;31.92;;;8.00;99.90;;;;;;4994089;28;20048;-57
2022/03/23 08:38:52;;;;;;;68.95;31.95;;;8.20;99.90;;;;;;5027377;28;20050;-56
2022/03/23 08:41:20;;;;;;;80.15;32.70;;;8.30;99.90;;;;;;5018871;28;20057;-57
2022/03/23 08:43:48;;;;;;;79.05;32.00;;;8.50;99.90;;;;;;5012483;28;20501;-57
2022/03/23 08:46:15;;;;;;;70.25;30.67;;;8.70;99.90;;;;;;5031321;28;20053;-57
2022/03/23 08:48:43;;;;;;;77.60;29.35;;;8.90;99.90;;;;;;5022129;28;20543;-57
2022/03/23 08:51:15;;;;;;;66.20;28.08;;;9.10;99.90;;;;;;5026772;28;20053;-57
2022/03/23 08:53:43;;;;;;;63.97;28.88;;;9.30;99.90;;;;;;5009949;28;20052;-58
2022/03/23 08:56:11;;;;;;;63.25;27.70;;;9.60;99.90;;;;;;5026906;28;20037;-58
2022/03/23 08:58:39;;;;;;;65.55;27.88;;;9.80;99.90;;;;;;5023752;28;20209;-58
2022/03/23 09:01:07;;;;;;;67.35;27.67;;;9.90;99.90;;;;;;5028763;28;20053;-58
2022/03/23 09:03:35;;;;;;;71.45;29.00;;;10.10;99.90;;;;;;5030902;28;20057;-58
2022/03/23 09:06:03;;;;;;;55.85;26.00;;;10.30;99.90;;;;;;5031243;28;20393;-58
2022/03/23 09:08:37;;;;;;;70.85;28.50;;;10.40;99.90;;;;;;5030945;28;20033;-58
2022/03/23 09:11:05;;;;;;;56.28;25.83;;;10.60;99.90;;;;;;5028205;28;20385;-58
2022/03/23 09:13:33;;;;;;;61.88;27.30;;;10.80;99.90;;;;;;5031204;28;20041;-58
2022/03/23 09:16:01;;;;;;;56.28;25.80;;;10.90;99.90;;;;;;5031401;28;20052;-58
2022/03/23 09:18:29;;;;;;;64.82;27.73;;;11.10;99.90;;;;;;5030177;28;20121;-59
2022/03/23 09:20:58;;;;;;;60.55;25.55;;;11.20;99.90;;;;;;5030216;28;20042;-58
2022/03/23 09:23:32;;;;;;;54.33;25.83;;;11.40;99.90;;;;;;5022136;28;20078;-58
2022/03/23 09:26:01;;;;;;;58.28;27.55;;;11.50;99.90;;;;;;5031217;28;20065;-58
2022/03/23 09:28:29;;;;;;;55.88;26.58;;;11.60;99.90;;;;;;5030176;28;20393;-58
2022/03/23 09:30:59;;;;;;;58.88;27.52;;;11.80;99.90;;;;;;5029645;28;20404;-59
2022/03/23 09:33:28;;;;;;;64.53;27.02;;;11.90;99.90;;;;;;5027891;28;20052;-58
2022/03/23 09:35:56;;;;;;;65.40;27.90;;;12.00;99.90;;;;;;5028385;28;20061;-58
2022/03/23 09:38:24;;;;;;;56.47;25.60;;;12.10;99.90;;;;;;5005487;28;20041;-57
2022/03/23 09:40:52;;;;;;;56.08;27.15;;;12.10;99.90;;;;;;5010231;28;20073;-57
2022/03/23 09:43:22;;;;;;;60.92;27.38;;;12.30;99.90;;;;;;5030209;28;20573;-57
2022/03/23 09:45:51;;;;;;;59.25;26.98;;;12.40;99.90;;;;;;5028071;28;20045;-58
2022/03/23 09:48:22;;;;;;;56.60;26.35;;;12.50;99.90;;;;;;5028483;28;20586;-58
2022/03/23 09:50:53;;;;;;;55.75;26.95;;;12.60;99.90;;;;;;5030399;28;20810;-58
2022/03/23 09:53:23;;;;;;;55.53;25.85;;;12.70;99.90;;;;;;5029759;28;20037;-59
2022/03/23 09:55:52;;;;;;;63.55;28.77;;;12.80;99.90;;;;;;5028722;28;20049;-58
2022/03/23 09:58:20;;;;;;;61.47;28.77;;;12.90;99.90;;;;;;5030528;28;20053;-58
2022/03/23 10:00:49;;;;;;;56.78;27.88;;;13.00;99.90;;;;;;5030668;28;20492;-58
2022/03/23 10:04:01;;;;;;;59.10;26.83;;;13.00;99.90;;;;;;5029251;28;20485;-57
2022/03/23 10:07:01;;;;;;;54.53;25.40;;;13.20;99.90;;;;;;5030240;28;20049;-57
2022/03/23 10:09:59;;;;;;;55.05;24.50;;;13.30;99.90;;;;;;5024473;28;20041;-57
2022/03/23 10:13:04;;;;;;;55.13;25.52;;;13.30;99.90;;;;;;5029390;28;20128;-57
2022/03/23 10:16:17;;;;;;;55.13;26.60;;;13.40;99.90;;;;;;5030569;28;20663;-58
2022/03/23 10:18:55;;;;;;;61.40;27.35;;;13.50;99.90;;;;;;5029597;28;20045;-58
2022/03/23 10:21:28;;;;;;;57.58;26.83;;;13.60;99.90;;;;;;5028352;28;20049;-58
2022/03/23 10:23:59;;;;;;;52.33;25.98;;;13.70;99.90;;;;;;5028452;28;20057;-58
2022/03/23 10:26:30;;;;;;;57.15;26.55;;;13.80;99.90;;;;;;5029355;28;20441;-58
2022/03/23 10:28:59;;;;;;;56.85;26.65;;;13.90;99.90;;;;;;5029571;28;20057;-59
2022/03/23 10:31:28;;;;;;;55.42;26.33;;;14.00;99.90;;;;;;5028775;28;20058;-59
2022/03/23 10:34:10;;;;;;;54.08;25.42;;;14.10;99.90;;;;;;5017294;28;20407;-58
2022/03/23 10:36:44;;;;;;;52.85;26.27;;;14.20;99.90;;;;;;5029394;28;20056;-58
2022/03/23 10:39:12;;;;;;;49.22;23.95;;;14.20;99.90;;;;;;5020840;28;20050;-58
2022/03/23 10:41:40;;;;;;;55.70;25.40;;;14.30;99.90;;;;;;5029368;28;20037;-59
2022/03/23 10:44:18;;;;;;;53.53;24.60;;;14.40;99.90;;;;;;5029384;28;20056;-59
2022/03/23 10:46:46;;;;;;;52.00;25.83;;;14.50;99.90;;;;;;5028548;28;20441;-58
2022/03/23 10:49:15;;;;;;;54.47;25.15;;;14.60;99.90;;;;;;5029492;28;20048;-59
2022/03/23 10:51:43;;;;;;;51.92;24.83;;;14.60;99.90;;;;;;5029529;28;20053;-58
2022/03/23 10:54:17;;;;;;;57.33;26.10;;;14.80;99.90;;;;;;5020627;28;20513;-58
2022/03/23 10:56:46;;;;;;;49.65;24.58;;;14.80;99.70;;;;;;5028233;28;20072;-57
2022/03/23 10:59:16;;;;;;;53.80;26.58;;;14.90;99.90;;;;;;5022865;28;20374;-56
2022/03/23 11:02:05;;;;;;;49.38;24.83;;;15.10;99.80;;;;;;5023160;28;20528;-57
2022/03/23 11:04:50;;;;;;;54.13;25.10;;;15.20;99.70;;;;;;5010047;28;20061;-58
2022/03/23 11:07:29;;;;;;;52.83;24.00;;;15.30;98.80;;;;;;5014996;28;20389;-57
2022/03/23 11:15:46;;;;;;;51.65;24.70;;;15.80;97.10;;;;;;5027814;28;20049;-58
2022/03/23 11:18:17;;;;;;;49.40;23.90;;;15.90;95.60;;;;;;5011689;28;20504;-58
2022/03/23 11:20:52;;;;;;;;;;;16.00;96.20;;;;;;5014392;28;20038;-58
2022/03/23 11:23:33;;;;;;;45.17;22.80;;;16.10;94.70;;;;;;5015402;28;19939;-59
2022/03/23 11:26:09;;;;;;;47.25;21.67;;;16.20;92.90;;;;;;5014278;28;20053;-58
2022/03/23 11:28:40;;;;;;;48.47;22.73;;;16.30;90.50;;;;;;5026251;28;20041;-58
2022/03/23 11:31:10;;;;;;;45.67;22.85;;;16.50;91.10;;;;;;5007424;28;20052;-59
2022/03/23 11:33:38;;;;;;;;;;;16.60;87.00;;;;;;5024483;28;20052;-57
2022/03/23 11:36:11;;;;;;;39.78;20.10;;;16.70;84.40;;;;;;5026806;28;19947;-58
2022/03/23 11:38:39;;;;;;;42.13;20.65;;;16.80;83.20;;;;;;5020312;28;20045;-59
2022/03/23 11:41:09;;;;;;;47.75;23.23;;;17.00;85.90;;;;;;5017060;28;20064;-59
2022/03/23 11:43:38;;;;;;;39.47;20.58;;;17.20;85.20;;;;;;5028116;28;20065;-59
2022/03/23 11:46:21;;;;;;;37.78;20.52;;;17.50;81.90;;;;;;5028667;28;20045;-59
2022/03/23 11:48:59;;;;;;;41.22;21.90;;;17.80;78.90;;;;;;5021120;28;20052;-58
2022/03/23 11:51:26;;;;;;;39.25;20.08;;;17.90;75.60;;;;;;5028641;28;20050;-63
2022/03/23 11:54:23;;;;;;;39.03;19.55;;;18.10;73.10;;;;;;5027955;28;20048;-58
2022/03/23 11:57:00;;;;;;;37.35;19.88;;;18.30;72.30;;;;;;5025845;28;20394;-58
2022/03/23 11:59:29;;;;;;;42.50;18.58;;;18.50;69.40;;;;;;4997664;28;20048;-58
2022/03/23 12:01:58;;;;;;;36.97;18.92;;;18.70;67.50;;;;;;5022256;28;20044;-58
2022/03/23 12:04:28;;;;;;;38.17;21.13;;;18.80;66.30;;;;;;5027969;28;20052;-58
2022/03/23 12:07:06;;;;;;;41.03;22.00;;;19.00;67.70;;;;;;5028501;28;20305;-59
2022/03/23 12:09:44;;;;;;;50.97;25.05;;;19.20;66.90;;;;;;5028490;28;20684;-59
2022/03/23 12:12:29;;;;;;;41.10;21.70;;;19.50;67.00;;;;;;5009344;28;20040;-59
2022/03/23 12:15:22;;;;;;;32.45;16.42;;;19.70;63.60;;;;;;5009165;28;20057;-59
2022/03/23 12:17:56;;;;;;;37.22;20.48;;;19.80;58.30;;;;;;5010517;28;20056;-59
2022/03/23 12:20:37;;;;;;;36.97;19.35;;;20.00;58.90;;;;;;5028123;28;20034;-59
2022/03/23 12:23:16;;;;;;;40.70;22.23;;;20.10;60.20;;;;;;5027805;28;20046;-59
2022/03/23 12:26:07;;;;;;;48.30;23.52;;;20.30;60.10;;;;;;5027487;28;20053;-59
2022/03/23 12:29:13;;;;;;;39.28;22.25;;;20.50;62.00;;;;;;5026554;28;20053;-59
2022/03/23 12:31:41;;;;;;;36.60;21.42;;;20.90;59.60;;;;;;4982373;28;20049;-59
2022/03/23 12:34:14;;;;;;;36.20;21.05;;;21.00;59.00;;;;;;5023620;28;20048;-59
2022/03/23 12:36:56;;;;;;;34.75;18.95;;;21.10;56.20;;;;;;5027601;28;20049;-59
2022/03/23 12:39:33;;;;;;;30.52;18.45;;;21.20;54.70;;;;;;5022319;28;20048;-59
2022/03/23 12:42:16;;;;;;;38.70;22.25;;;21.30;54.70;;;;;;5013813;28;20053;-60
2022/03/23 12:44:47;;;;;;;34.63;19.35;;;21.50;55.10;;;;;;4992299;28;20045;-59
2022/03/23 12:47:26;;;;;;;30.65;19.13;;;21.60;53.80;;;;;;5013788;28;20042;-60
2022/03/23 12:58:31;;;;;;;31.70;18.73;;;21.80;54.40;;;;;;5027513;28;19925;-59
2022/03/23 13:01:18;;;;;;;39.70;22.77;;;22.10;54.50;;;;;;5019455;28;20497;-59
2022/03/23 13:03:49;;;;;;;29.30;18.10;;;22.40;52.40;;;;;;5024189;28;20049;-58
2022/03/23 13:06:18;;;;;;;36.72;19.15;;;22.60;50.20;;;;;;5021732;28;20394;-58
2022/03/23 13:08:48;;;;;;;38.42;21.30;;;22.60;50.50;;;;;;5027345;28;20052;-58
2022/03/23 13:11:26;;;;;;;35.05;20.75;;;22.60;50.70;;;;;;5027861;28;20042;-58
2022/03/23 13:13:55;;;;;;;39.33;19.55;;;22.60;50.30;;;;;;5026454;28;20046;-58
2022/03/23 13:16:26;;;;;;;41.95;19.90;;;22.60;49.40;;;;;;5013971;28;20569;-59